sensor_id;sensor_type;location;lat;lon;timestamp;pressure;altitude;pressure_sealevel;temperature;humidity
65832;BME280;52593;42.648;23.332;2023-01-30T00:01:19;94782.34;;;-2.27;84.38
65832;BME280;52593;42.648;23.332;2023-01-30T00:03:45;94788.75;;;-2.31;85.04
65832;BME280;52593;42.648;23.332;2023-01-30T00:06:10;94783.72;;;-2.34;84.48
65832;BME280;52593;42.648;23.332;2023-01-30T00:08:36;94776.97;;;-2.38;85.20
65832;BME280;52593;42.648;23.332;2023-01-30T00:11:09;94780.44;;;-2.38;85.06
65832;BME280;52593;42.648;23.332;2023-01-30T00:13:35;94781.38;;;-2.39;85.64
65832;BME280;52593;42.648;23.332;2023-01-30T00:16:01;94776.88;;;-2.37;85.57
65832;BME280;52593;42.648;23.332;2023-01-30T00:18:26;94775.28;;;-2.39;86.35
65832;BME280;52593;42.648;23.332;2023-01-30T00:20:58;94772.56;;;-2.38;85.28
65832;BME280;52593;42.648;23.332;2023-01-30T00:23:25;94777.38;;;-2.44;86.29
65832;BME280;52593;42.648;23.332;2023-01-30T00:25:51;94775.47;;;-2.42;86.78
65832;BME280;52593;42.648;23.332;2023-01-30T00:28:16;94776.88;;;-2.37;86.09
65832;BME280;52593;42.648;23.332;2023-01-30T00:30:41;94781.38;;;-2.39;86.46
65832;BME280;52593;42.648;23.332;2023-01-30T00:33:08;94778.66;;;-2.37;86.49
65832;BME280;52593;42.648;23.332;2023-01-30T00:35:33;94776.88;;;-2.37;86.47
65832;BME280;52593;42.648;23.332;2023-01-30T00:37:59;94782.22;;;-2.38;86.37
65832;BME280;52593;42.648;23.332;2023-01-30T00:40:26;94768.97;;;-2.49;87.35
65832;BME280;52593;42.648;23.332;2023-01-30T00:42:52;94773.16;;;-2.47;87.99
65832;BME280;52593;42.648;23.332;2023-01-30T00:45:37;94771.59;;;-2.49;88.15
65832;BME280;52593;42.648;23.332;2023-01-30T00:48:23;94758.81;;;-2.54;88.25
65832;BME280;52593;42.648;23.332;2023-01-30T00:50:48;94754.28;;;-2.52;88.36
65832;BME280;52593;42.648;23.332;2023-01-30T00:53:14;94754.19;;;-2.51;88.49
65832;BME280;52593;42.648;23.332;2023-01-30T00:55:40;94752.47;;;-2.64;88.56
65832;BME280;52593;42.648;23.332;2023-01-30T00:58:07;94763.44;;;-2.72;89.27
65832;BME280;52593;42.648;23.332;2023-01-30T01:00:33;94746.84;;;-2.73;89.70
65832;BME280;52593;42.648;23.332;2023-01-30T01:02:58;94752.56;;;-2.66;89.22
65832;BME280;52593;42.648;23.332;2023-01-30T01:05:24;94752.75;;;-2.69;89.03
65832;BME280;52593;42.648;23.332;2023-01-30T01:07:50;94755.00;;;-2.77;88.87
65832;BME280;52593;42.648;23.332;2023-01-30T01:10:15;94758.38;;;-2.75;89.81
65832;BME280;52593;42.648;23.332;2023-01-30T01:12:41;94744.00;;;-2.82;89.83
65832;BME280;52593;42.648;23.332;2023-01-30T01:15:09;94751.94;;;-2.84;89.47
65832;BME280;52593;42.648;23.332;2023-01-30T01:17:36;94745.88;;;-2.84;89.84
65832;BME280;52593;42.648;23.332;2023-01-30T01:20:02;94748.59;;;-2.86;90.06
65832;BME280;52593;42.648;23.332;2023-01-30T01:22:28;94742.50;;;-2.87;89.71
65832;BME280;52593;42.648;23.332;2023-01-30T01:24:53;94736.25;;;-2.84;89.94
65832;BME280;52593;42.648;23.332;2023-01-30T01:27:18;94741.97;;;-2.92;88.61
65832;BME280;52593;42.648;23.332;2023-01-30T01:29:44;94738.22;;;-2.88;89.21
65832;BME280;52593;42.648;23.332;2023-01-30T01:32:09;94742.31;;;-2.83;89.39
65832;BME280;52593;42.648;23.332;2023-01-30T01:34:34;94731.72;;;-2.82;89.17
65832;BME280;52593;42.648;23.332;2023-01-30T01:37:00;94736.78;;;-2.79;89.10
65832;BME280;52593;42.648;23.332;2023-01-30T01:39:25;94742.97;;;-2.80;88.74
65832;BME280;52593;42.648;23.332;2023-01-30T01:42:10;94734.25;;;-2.80;89.44
65832;BME280;52593;42.648;23.332;2023-01-30T01:47:32;94736.78;;;-2.79;88.10
65832;BME280;52593;42.648;23.332;2023-01-30T01:49:58;94742.78;;;-2.77;87.84
65832;BME280;52593;42.648;23.332;2023-01-30T01:52:24;94734.81;;;-2.75;88.15
65832;BME280;52593;42.648;23.332;2023-01-30T01:54:56;94735.84;;;-2.78;88.38
65832;BME280;52593;42.648;23.332;2023-01-30T01:57:27;94737.63;;;-2.78;87.85
65832;BME280;52593;42.648;23.332;2023-01-30T02:00:04;94726.19;;;-2.77;87.81
65832;BME280;52593;42.648;23.332;2023-01-30T02:02:32;94737.44;;;-2.75;88.15
65832;BME280;52593;42.648;23.332;2023-01-30T02:04:58;94733.22;;;-2.78;87.60
65832;BME280;52593;42.648;23.332;2023-01-30T02:07:37;94739.38;;;-2.79;87.39
65832;BME280;52593;42.648;23.332;2023-01-30T02:10:07;94736.47;;;-2.74;87.82
65832;BME280;52593;42.648;23.332;2023-01-30T02:12:37;94739.28;;;-2.77;86.82
65832;BME280;52593;42.648;23.332;2023-01-30T02:15:04;94748.09;;;-2.78;85.74
65832;BME280;52593;42.648;23.332;2023-01-30T02:17:30;94743.91;;;-2.81;84.13
65832;BME280;52593;42.648;23.332;2023-01-30T02:34:15;94745.50;;;-2.78;84.00
65832;BME280;52593;42.648;23.332;2023-01-30T02:36:58;94733.25;;;-2.65;84.03
65832;BME280;52593;42.648;23.332;2023-01-30T02:39:52;94733.25;;;-2.65;83.06
65832;BME280;52593;42.648;23.332;2023-01-30T02:42:31;94732.34;;;-2.64;83.50
65832;BME280;52593;42.648;23.332;2023-01-30T02:47:33;94728.69;;;-2.61;83.97
65832;BME280;52593;42.648;23.332;2023-01-30T02:50:20;94729.50;;;-2.61;83.89
65832;BME280;52593;42.648;23.332;2023-01-30T02:52:47;94720.53;;;-2.57;84.48
65832;BME280;52593;42.648;23.332;2023-01-30T02:55:24;94721.03;;;-2.64;84.71
65832;BME280;52593;42.648;23.332;2023-01-30T02:57:50;94722.78;;;-2.65;84.35
65832;BME280;52593;42.648;23.332;2023-01-30T03:00:21;94724.25;;;-2.74;85.00
65832;BME280;52593;42.648;23.332;2023-01-30T03:08:50;94734.72;;;-2.74;84.64
65832;BME280;52593;42.648;23.332;2023-01-30T03:11:23;94737.25;;;-2.72;84.42
65832;BME280;52593;42.648;23.332;2023-01-30T03:14:17;94730.00;;;-2.69;83.74
65832;BME280;52593;42.648;23.332;2023-01-30T03:16:45;94719.50;;;-2.81;84.06
65832;BME280;52593;42.648;23.332;2023-01-30T03:19:12;94717.50;;;-2.78;84.65
65832;BME280;52593;42.648;23.332;2023-01-30T03:21:42;94717.94;;;-2.71;84.63
65832;BME280;52593;42.648;23.332;2023-01-30T03:24:09;94709.63;;;-2.63;84.94
65832;BME280;52593;42.648;23.332;2023-01-30T03:26:37;94702.44;;;-2.74;83.84
65832;BME280;52593;42.648;23.332;2023-01-30T03:29:04;94700.38;;;-2.69;84.57
65832;BME280;52593;42.648;23.332;2023-01-30T03:31:30;94693.97;;;-2.65;84.34
65832;BME280;52593;42.648;23.332;2023-01-30T03:33:55;94694.22;;;-2.55;84.50
65832;BME280;52593;42.648;23.332;2023-01-30T03:36:20;94696.22;;;-2.59;83.94
65832;BME280;52593;42.648;23.332;2023-01-30T03:38:46;94692.63;;;-2.58;83.78
65832;BME280;52593;42.648;23.332;2023-01-30T03:41:11;94686.09;;;-2.78;84.39
65832;BME280;52593;42.648;23.332;2023-01-30T03:43:37;94683.66;;;-2.81;84.75
65832;BME280;52593;42.648;23.332;2023-01-30T03:46:02;94689.09;;;-2.84;84.98
65832;BME280;52593;42.648;23.332;2023-01-30T03:48:28;94687.41;;;-2.85;84.68
65832;BME280;52593;42.648;23.332;2023-01-30T03:50:53;94676.34;;;-2.76;84.48
65832;BME280;52593;42.648;23.332;2023-01-30T03:53:18;94687.06;;;-2.66;84.95
65832;BME280;52593;42.648;23.332;2023-01-30T03:55:44;94687.59;;;-2.61;84.40
65832;BME280;52593;42.648;23.332;2023-01-30T03:58:09;94683.38;;;-2.76;84.43
65832;BME280;52593;42.648;23.332;2023-01-30T04:00:35;94683.06;;;-2.99;84.37
65832;BME280;52593;42.648;23.332;2023-01-30T04:03:00;94673.06;;;-2.92;84.52
65832;BME280;52593;42.648;23.332;2023-01-30T04:05:26;94673.59;;;-2.87;84.05
65832;BME280;52593;42.648;23.332;2023-01-30T04:07:55;94669.28;;;-2.88;83.59
65832;BME280;52593;42.648;23.332;2023-01-30T04:10:20;94672.66;;;-2.86;83.97
65832;BME280;52593;42.648;23.332;2023-01-30T04:12:46;94675.19;;;-2.84;85.09
65832;BME280;52593;42.648;23.332;2023-01-30T04:15:12;94673.50;;;-2.85;86.14
65832;BME280;52593;42.648;23.332;2023-01-30T04:17:37;94676.31;;;-2.89;86.07
65832;BME280;52593;42.648;23.332;2023-01-30T04:20:03;94674.41;;;-2.87;86.81
65832;BME280;52593;42.648;23.332;2023-01-30T04:22:29;94685.00;;;-2.88;86.66
65832;BME280;52593;42.648;23.332;2023-01-30T04:24:54;94678.78;;;-3.00;87.39
65832;BME280;52593;42.648;23.332;2023-01-30T04:27:19;94678.50;;;-2.95;87.77
65832;BME280;52593;42.648;23.332;2023-01-30T04:29:45;94681.00;;;-2.94;87.49
65832;BME280;52593;42.648;23.332;2023-01-30T04:32:10;94678.88;;;-3.01;88.40
65832;BME280;52593;42.648;23.332;2023-01-30T04:34:35;94681.59;;;-3.03;87.57
65832;BME280;52593;42.648;23.332;2023-01-30T04:37:01;94675.00;;;-2.96;88.02
65832;BME280;52593;42.648;23.332;2023-01-30T04:39:26;94680.16;;;-2.94;88.45
65832;BME280;52593;42.648;23.332;2023-01-30T04:41:51;94671.66;;;-2.98;87.93
65832;BME280;52593;42.648;23.332;2023-01-30T04:44:17;94677.19;;;-3.02;87.98
65832;BME280;52593;42.648;23.332;2023-01-30T04:46:42;94676.25;;;-3.01;88.20
65832;BME280;52593;42.648;23.332;2023-01-30T04:49:10;94671.22;;;-3.05;88.41
65832;BME280;52593;42.648;23.332;2023-01-30T04:51:36;94663.88;;;-3.12;88.38
65832;BME280;52593;42.648;23.332;2023-01-30T04:54:01;94665.63;;;-3.13;89.20
65832;BME280;52593;42.648;23.332;2023-01-30T04:56:27;94657.47;;;-3.08;89.34
65832;BME280;52593;42.648;23.332;2023-01-30T04:58:52;94661.06;;;-3.09;89.35
65832;BME280;52593;42.648;23.332;2023-01-30T05:01:23;94667.75;;;-3.05;89.38
65832;BME280;52593;42.648;23.332;2023-01-30T05:03:50;94660.94;;;-3.08;90.25
65832;BME280;52593;42.648;23.332;2023-01-30T05:06:16;94653.09;;;-3.08;89.95
65832;BME280;52593;42.648;23.332;2023-01-30T05:08:41;94658.97;;;-3.04;89.98
65832;BME280;52593;42.648;23.332;2023-01-30T05:11:06;94652.41;;;-2.97;89.92
65832;BME280;52593;42.648;23.332;2023-01-30T05:13:32;94653.34;;;-2.98;89.84
65832;BME280;52593;42.648;23.332;2023-01-30T05:15:57;94656.47;;;-2.93;89.49
65832;BME280;52593;42.648;23.332;2023-01-30T05:18:23;94653.13;;;-2.95;89.37
65832;BME280;52593;42.648;23.332;2023-01-30T05:20:48;94660.66;;;-3.03;90.35
65832;BME280;52593;42.648;23.332;2023-01-30T05:23:14;94660.75;;;-3.05;90.19
65832;BME280;52593;42.648;23.332;2023-01-30T05:25:39;94665.28;;;-3.21;90.82
65832;BME280;52593;42.648;23.332;2023-01-30T05:28:04;94662.19;;;-3.13;91.50
65832;BME280;52593;42.648;23.332;2023-01-30T05:30:30;94673.28;;;-3.10;91.38
65832;BME280;52593;42.648;23.332;2023-01-30T05:32:57;94674.91;;;-3.21;92.04
65832;BME280;52593;42.648;23.332;2023-01-30T05:35:22;94670.97;;;-3.14;92.31
65832;BME280;52593;42.648;23.332;2023-01-30T05:37:51;94663.00;;;-3.13;91.85
65832;BME280;52593;42.648;23.332;2023-01-30T05:40:17;94662.81;;;-3.10;91.74
65832;BME280;52593;42.648;23.332;2023-01-30T05:42:42;94656.94;;;-3.13;92.74
65832;BME280;52593;42.648;23.332;2023-01-30T05:45:08;94660.38;;;-3.13;92.66
65832;BME280;52593;42.648;23.332;2023-01-30T05:47:34;94671.34;;;-3.20;92.16
65832;BME280;52593;42.648;23.332;2023-01-30T05:49:59;94662.84;;;-3.24;92.58
65832;BME280;52593;42.648;23.332;2023-01-30T05:52:24;94676.59;;;-3.20;93.39
65832;BME280;52593;42.648;23.332;2023-01-30T05:54:50;94668.72;;;-3.20;92.90
65832;BME280;52593;42.648;23.332;2023-01-30T05:57:15;94678.50;;;-3.10;93.15
65832;BME280;52593;42.648;23.332;2023-01-30T05:59:40;94673.84;;;-3.05;92.37
65832;BME280;52593;42.648;23.332;2023-01-30T06:02:06;94679.38;;;-3.09;92.27
65832;BME280;52593;42.648;23.332;2023-01-30T06:04:31;94673.94;;;-3.06;92.38
65832;BME280;52593;42.648;23.332;2023-01-30T06:06:57;94688.44;;;-3.15;93.09
65832;BME280;52593;42.648;23.332;2023-01-30T06:09:22;94678.28;;;-3.19;92.57
65832;BME280;52593;42.648;23.332;2023-01-30T06:11:47;94683.13;;;-3.13;93.42
65832;BME280;52593;42.648;23.332;2023-01-30T06:14:13;94681.09;;;-3.23;93.07
65832;BME280;52593;42.648;23.332;2023-01-30T06:16:38;94668.72;;;-3.20;93.51
65832;BME280;52593;42.648;23.332;2023-01-30T06:19:03;94673.38;;;-3.11;93.23
65832;BME280;52593;42.648;23.332;2023-01-30T06:21:29;94669.72;;;-3.09;92.62
65832;BME280;52593;42.648;23.332;2023-01-30T06:23:55;94667.13;;;-3.09;92.63
65832;BME280;52593;42.648;23.332;2023-01-30T06:26:20;94656.09;;;-3.14;92.30
65832;BME280;52593;42.648;23.332;2023-01-30T06:28:46;94660.38;;;-3.13;93.04
65832;BME280;52593;42.648;23.332;2023-01-30T06:31:12;94659.94;;;-3.19;93.39
65832;BME280;52593;42.648;23.332;2023-01-30T06:33:37;94663.00;;;-3.13;93.86
65832;BME280;52593;42.648;23.332;2023-01-30T06:36:03;94659.03;;;-3.18;92.60
65832;BME280;52593;42.648;23.332;2023-01-30T06:38:28;94661.84;;;-3.21;92.51
65832;BME280;52593;42.648;23.332;2023-01-30T06:40:54;94662.97;;;-3.26;92.76
65832;BME280;52593;42.648;23.332;2023-01-30T06:43:19;94667.06;;;-3.21;93.01
65832;BME280;52593;42.648;23.332;2023-01-30T06:45:44;94664.25;;;-3.18;92.81
65832;BME280;52593;42.648;23.332;2023-01-30T06:48:10;94672.94;;;-3.18;93.05
65832;BME280;52593;42.648;23.332;2023-01-30T06:50:35;94671.72;;;-3.12;93.23
65832;BME280;52593;42.648;23.332;2023-01-30T06:53:06;94674.00;;;-2.80;94.58
65832;BME280;52593;42.648;23.332;2023-01-30T06:55:32;94674.63;;;-2.90;91.73
65832;BME280;52593;42.648;23.332;2023-01-30T06:58:12;94676.50;;;-2.92;90.98
65832;BME280;52593;42.648;23.332;2023-01-30T07:00:39;94670.44;;;-2.92;91.18
65832;BME280;52593;42.648;23.332;2023-01-30T07:03:12;94688.56;;;-2.89;91.12
65832;BME280;52593;42.648;23.332;2023-01-30T07:05:39;94677.44;;;-2.93;90.83
65832;BME280;52593;42.648;23.332;2023-01-30T07:08:04;94681.41;;;-3.00;91.23
65832;BME280;52593;42.648;23.332;2023-01-30T07:10:29;94685.78;;;-3.00;90.91
65832;BME280;52593;42.648;23.332;2023-01-30T07:12:56;94685.16;;;-3.04;90.82
65832;BME280;52593;42.648;23.332;2023-01-30T07:15:22;94690.19;;;-3.01;90.99
65832;BME280;52593;42.648;23.332;2023-01-30T07:17:47;94685.88;;;-3.02;90.30
65832;BME280;52593;42.648;23.332;2023-01-30T07:20:12;94686.44;;;-2.97;90.29
65832;BME280;52593;42.648;23.332;2023-01-30T07:22:38;94688.38;;;-2.86;90.39
65832;BME280;52593;42.648;23.332;2023-01-30T07:25:04;94691.22;;;-2.76;91.38
65832;BME280;52593;42.648;23.332;2023-01-30T07:27:29;94689.72;;;-2.80;89.31
65832;BME280;52593;42.648;23.332;2023-01-30T07:29:55;94697.34;;;-2.90;89.62
65832;BME280;52593;42.648;23.332;2023-01-30T07:32:20;94698.03;;;-3.01;89.63
65832;BME280;52593;42.648;23.332;2023-01-30T07:34:47;94710.84;;;-2.96;89.88
65832;BME280;52593;42.648;23.332;2023-01-30T07:37:12;94709.34;;;-3.00;89.43
65832;BME280;52593;42.648;23.332;2023-01-30T07:39:38;94709.44;;;-3.02;89.40
65832;BME280;52593;42.648;23.332;2023-01-30T07:42:04;94707.91;;;-2.92;89.78
65832;BME280;52593;42.648;23.332;2023-01-30T07:44:29;94708.66;;;-2.90;89.24
65832;BME280;52593;42.648;23.332;2023-01-30T07:46:54;94711.28;;;-2.90;89.86
65832;BME280;52593;42.648;23.332;2023-01-30T07:49:20;94711.47;;;-2.93;88.51
65832;BME280;52593;42.648;23.332;2023-01-30T07:51:45;94713.25;;;-2.93;88.21
65832;BME280;52593;42.648;23.332;2023-01-30T07:54:11;94706.69;;;-2.86;88.66
65832;BME280;52593;42.648;23.332;2023-01-30T07:56:36;94707.03;;;-2.78;88.11
65832;BME280;52593;42.648;23.332;2023-01-30T07:59:02;94703.00;;;-2.69;88.21
65832;BME280;52593;42.648;23.332;2023-01-30T08:01:30;94685.94;;;-2.62;87.81
65832;BME280;52593;42.648;23.332;2023-01-30T08:03:56;94685.75;;;-2.59;87.19
65832;BME280;52593;42.648;23.332;2023-01-30T08:06:21;94677.56;;;-2.54;85.71
65832;BME280;52593;42.648;23.332;2023-01-30T08:08:47;94674.00;;;-2.53;85.13
65832;BME280;52593;42.648;23.332;2023-01-30T08:11:12;94669.38;;;-2.62;85.13
65832;BME280;52593;42.648;23.332;2023-01-30T08:13:38;94661.75;;;-2.53;85.95
65832;BME280;52593;42.648;23.332;2023-01-30T08:16:04;94675.28;;;-2.46;85.62
65832;BME280;52593;42.648;23.332;2023-01-30T08:18:31;94665.94;;;-2.50;84.42
65832;BME280;52593;42.648;23.332;2023-01-30T08:20:58;94669.00;;;-2.43;85.45
65832;BME280;52593;42.648;23.332;2023-01-30T08:23:23;94670.31;;;-2.63;84.38
65832;BME280;52593;42.648;23.332;2023-01-30T08:25:49;94667.19;;;-2.56;86.11
65832;BME280;52593;42.648;23.332;2023-01-30T08:28:14;94665.59;;;-2.58;84.58
65832;BME280;52593;42.648;23.332;2023-01-30T08:30:40;94659.13;;;-2.53;84.17
65832;BME280;52593;42.648;23.332;2023-01-30T08:33:06;94657.56;;;-2.42;84.26
65832;BME280;52593;42.648;23.332;2023-01-30T08:35:31;94660.84;;;-2.39;82.94
65832;BME280;52593;42.648;23.332;2023-01-30T08:37:56;94651.91;;;-2.36;82.26
65832;BME280;52593;42.648;23.332;2023-01-30T08:40:22;94656.63;;;-2.41;82.29
65832;BME280;52593;42.648;23.332;2023-01-30T08:42:47;94654.84;;;-2.41;82.14
65832;BME280;52593;42.648;23.332;2023-01-30T08:45:13;94649.28;;;-2.36;82.17
65832;BME280;52593;42.648;23.332;2023-01-30T08:47:38;94644.16;;;-2.38;81.54
65832;BME280;52593;42.648;23.332;2023-01-30T08:50:04;94641.88;;;-2.29;81.63
65832;BME280;52593;42.648;23.332;2023-01-30T08:52:31;94645.53;;;-2.19;81.64
65832;BME280;52593;42.648;23.332;2023-01-30T08:54:57;94648.38;;;-2.09;80.06
65832;BME280;52593;42.648;23.332;2023-01-30T08:57:22;94649.44;;;-2.25;79.90
65832;BME280;52593;42.648;23.332;2023-01-30T08:59:48;94638.63;;;-2.20;80.25
65832;BME280;52593;42.648;23.332;2023-01-30T09:02:15;94624.78;;;-2.09;79.74
65832;BME280;52593;42.648;23.332;2023-01-30T09:04:41;94623.50;;;-2.04;79.56
65832;BME280;52593;42.648;23.332;2023-01-30T09:07:06;94625.81;;;-2.12;79.17
65832;BME280;52593;42.648;23.332;2023-01-30T09:09:32;94615.53;;;-2.15;79.61
65832;BME280;52593;42.648;23.332;2023-01-30T09:11:57;94616.59;;;-2.05;79.57
65832;BME280;52593;42.648;23.332;2023-01-30T09:14:23;94615.97;;;-1.95;79.00
65832;BME280;52593;42.648;23.332;2023-01-30T09:16:49;94614.94;;;-1.93;78.82
65832;BME280;52593;42.648;23.332;2023-01-30T09:19:24;94613.84;;;-1.77;77.87
65832;BME280;52593;42.648;23.332;2023-01-30T09:21:52;94620.16;;;-1.93;78.20
65832;BME280;52593;42.648;23.332;2023-01-30T09:24:18;94612.28;;;-1.80;78.36
65832;BME280;52593;42.648;23.332;2023-01-30T09:26:44;94612.81;;;-1.88;77.38
65832;BME280;52593;42.648;23.332;2023-01-30T09:29:13;94611.56;;;-1.95;77.67
65832;BME280;52593;42.648;23.332;2023-01-30T09:31:39;94605.47;;;-1.95;76.78
65832;BME280;52593;42.648;23.332;2023-01-30T09:34:06;94613.25;;;-1.94;77.69
65832;BME280;52593;42.648;23.332;2023-01-30T09:36:32;94611.75;;;-1.98;79.35
65832;BME280;52593;42.648;23.332;2023-01-30T09:38:57;94609.78;;;-2.07;80.01
65832;BME280;52593;42.648;23.332;2023-01-30T09:41:42;94605.69;;;-2.11;82.14
65832;BME280;52593;42.648;23.332;2023-01-30T09:47:14;94599.19;;;-2.19;82.70
65832;BME280;52593;42.648;23.332;2023-01-30T09:52:25;94598.13;;;-2.16;82.64
65832;BME280;52593;42.648;23.332;2023-01-30T09:54:54;94592.78;;;-2.27;83.98
65832;BME280;52593;42.648;23.332;2023-01-30T09:57:23;94591.97;;;-2.28;84.29
65832;BME280;52593;42.648;23.332;2023-01-30T10:00:12;94589.78;;;-2.34;84.08
65832;BME280;52593;42.648;23.332;2023-01-30T10:02:52;94581.78;;;-2.20;84.26
65832;BME280;52593;42.648;23.332;2023-01-30T10:05:50;94582.63;;;-2.19;84.91
65832;BME280;52593;42.648;23.332;2023-01-30T10:28:05;94538.81;;;-2.43;84.05
65832;BME280;52593;42.648;23.332;2023-01-30T10:30:34;94544.38;;;-2.47;84.75
65832;BME280;52593;42.648;23.332;2023-01-30T10:33:05;94525.84;;;-2.57;85.02
65832;BME280;52593;42.648;23.332;2023-01-30T10:35:37;94531.34;;;-2.36;85.51
65832;BME280;52593;42.648;23.332;2023-01-30T10:38:19;94525.25;;;-2.24;83.29
65832;BME280;52593;42.648;23.332;2023-01-30T10:40:56;94521.94;;;-2.52;82.78
65832;BME280;52593;42.648;23.332;2023-01-30T10:43:29;94513.97;;;-2.37;82.50
65832;BME280;52593;42.648;23.332;2023-01-30T10:46:19;94500.44;;;-2.31;82.16
65832;BME280;52593;42.648;23.332;2023-01-30T10:48:58;94498.44;;;-2.27;81.94
65832;BME280;52593;42.648;23.332;2023-01-30T10:54:14;94484.91;;;-2.21;81.91
65832;BME280;52593;42.648;23.332;2023-01-30T10:59:21;94460.91;;;-2.28;80.61
65832;BME280;52593;42.648;23.332;2023-01-30T11:01:57;94467.09;;;-2.29;81.88
65832;BME280;52593;42.648;23.332;2023-01-30T11:04:39;94449.03;;;-2.21;81.29
65832;BME280;52593;42.648;23.332;2023-01-30T11:07:06;94444.66;;;-2.20;80.67
65832;BME280;52593;42.648;23.332;2023-01-30T11:09:42;94442.69;;;-2.05;80.65
65832;BME280;52593;42.648;23.332;2023-01-30T11:12:08;94438.13;;;-2.15;80.79
65832;BME280;52593;42.648;23.332;2023-01-30T11:15:12;94431.16;;;-2.03;80.22
65832;BME280;52593;42.648;23.332;2023-01-30T11:17:39;94429.66;;;-1.94;79.85
65832;BME280;52593;42.648;23.332;2023-01-30T11:20:16;94422.94;;;-2.22;81.28
65832;BME280;52593;42.648;23.332;2023-01-30T11:22:51;94415.72;;;-2.19;80.08
65832;BME280;52593;42.648;23.332;2023-01-30T11:25:24;94407.69;;;-2.04;79.89
65832;BME280;52593;42.648;23.332;2023-01-30T11:27:55;94395.59;;;-1.94;80.22
65832;BME280;52593;42.648;23.332;2023-01-30T11:30:34;94396.53;;;-1.95;79.66
65832;BME280;52593;42.648;23.332;2023-01-30T11:33:12;94391.56;;;-2.11;79.62
65832;BME280;52593;42.648;23.332;2023-01-30T11:35:59;94379.63;;;-2.15;80.04
65832;BME280;52593;42.648;23.332;2023-01-30T11:38:25;94397.16;;;-2.28;80.38
65832;BME280;52593;42.648;23.332;2023-01-30T11:43:38;94381.69;;;-2.07;80.21
65832;BME280;52593;42.648;23.332;2023-01-30T11:46:08;94369.47;;;-2.20;80.55
65832;BME280;52593;42.648;23.332;2023-01-30T11:48:49;94366.56;;;-2.04;80.54
65832;BME280;52593;42.648;23.332;2023-01-30T11:51:19;94354.84;;;-1.87;80.23
65832;BME280;52593;42.648;23.332;2023-01-30T11:53:57;94344.38;;;-1.87;79.76
65832;BME280;52593;42.648;23.332;2023-01-30T11:56:35;94345.84;;;-1.71;79.18
65832;BME280;52593;42.648;23.332;2023-01-30T12:01:40;94342.78;;;-1.54;78.88
65832;BME280;52593;42.648;23.332;2023-01-30T12:04:08;94327.47;;;-1.71;78.99
65832;BME280;52593;42.648;23.332;2023-01-30T12:06:39;94321.38;;;-1.72;79.19
65832;BME280;52593;42.648;23.332;2023-01-30T12:09:05;94315.94;;;-1.57;79.51
65832;BME280;52593;42.648;23.332;2023-01-30T12:11:39;94305.63;;;-1.25;78.26
65832;BME280;52593;42.648;23.332;2023-01-30T12:20:28;94295.06;;;-1.59;78.56
65832;BME280;52593;42.648;23.332;2023-01-30T12:22:35;94294.44;;;-1.74;79.08
65832;BME280;52593;42.648;23.332;2023-01-30T12:25:24;94289.06;;;-1.72;77.35
65832;BME280;52593;42.648;23.332;2023-01-30T12:30:52;94285.63;;;-1.62;78.90
65832;BME280;52593;42.648;23.332;2023-01-30T12:33:21;94282.19;;;-1.62;78.32
65832;BME280;52593;42.648;23.332;2023-01-30T12:35:49;94272.41;;;-1.49;79.15
65832;BME280;52593;42.648;23.332;2023-01-30T12:41:31;94275.28;;;-1.29;73.27
65832;BME280;52593;42.648;23.332;2023-01-30T13:00:44;94236.91;;;-1.30;69.19
65832;BME280;52593;42.648;23.332;2023-01-30T13:05:50;94246.06;;;-1.36;68.60
65832;BME280;52593;42.648;23.332;2023-01-30T13:10:57;94253.00;;;-1.23;69.28
65832;BME280;52593;42.648;23.332;2023-01-30T13:13:30;94245.72;;;-1.20;67.97
65832;BME280;52593;42.648;23.332;2023-01-30T13:18:34;94250.84;;;-1.07;66.92
65832;BME280;52593;42.648;23.332;2023-01-30T13:22:06;94239.38;;;-1.06;66.84
65832;BME280;52593;42.648;23.332;2023-01-30T13:26:40;94225.66;;;-1.10;66.83
65832;BME280;52593;42.648;23.332;2023-01-30T13:31:53;94230.66;;;-1.06;67.49
65832;BME280;52593;42.648;23.332;2023-01-30T13:34:27;94223.25;;;-1.01;67.71
65832;BME280;52593;42.648;23.332;2023-01-30T13:42:07;94212.53;;;-1.10;67.18
65832;BME280;52593;42.648;23.332;2023-01-30T13:44:39;94216.94;;;-1.21;68.11
65832;BME280;52593;42.648;23.332;2023-01-30T13:47:18;94210.38;;;-1.16;67.05
65832;BME280;52593;42.648;23.332;2023-01-30T13:50:08;94207.75;;;-1.16;68.59
65832;BME280;52593;42.648;23.332;2023-01-30T13:52:43;94213.00;;;-1.16;71.43
65832;BME280;52593;42.648;23.332;2023-01-30T13:58:03;94212.56;;;-1.21;73.01
65832;BME280;52593;42.648;23.332;2023-01-30T14:00:35;94212.44;;;-1.19;70.80
65832;BME280;52593;42.648;23.332;2023-01-30T14:08:18;94210.75;;;-1.54;76.13
65832;BME280;52593;42.648;23.332;2023-01-30T14:10:44;94213.59;;;-1.80;78.12
65832;BME280;52593;42.648;23.332;2023-01-30T14:13:13;94209.44;;;-1.71;78.33
65832;BME280;52593;42.648;23.332;2023-01-30T14:15:50;94207.78;;;-1.27;77.42
65832;BME280;52593;42.648;23.332;2023-01-30T14:18:22;94204.81;;;-1.45;76.42
65832;BME280;52593;42.648;23.332;2023-01-30T14:20:50;94212.88;;;-1.82;77.99
65832;BME280;52593;42.648;23.332;2023-01-30T14:23:31;94211.88;;;-2.04;78.78
65832;BME280;52593;42.648;23.332;2023-01-30T14:25:58;94216.28;;;-2.04;79.45
65832;BME280;52593;42.648;23.332;2023-01-30T14:30:51;94212.06;;;-2.18;79.24
65832;BME280;52593;42.648;23.332;2023-01-30T14:36:31;94221.00;;;-2.21;79.12
65832;BME280;52593;42.648;23.332;2023-01-30T14:38:38;94218.03;;;-2.16;78.74
65832;BME280;52593;42.648;23.332;2023-01-30T15:07:13;94193.09;;;-2.33;79.61
65832;BME280;52593;42.648;23.332;2023-01-30T15:09:45;94195.69;;;-2.33;80.30
65832;BME280;52593;42.648;23.332;2023-01-30T15:12:27;94190.00;;;-2.27;79.93
65832;BME280;52593;42.648;23.332;2023-01-30T15:20:24;94186.91;;;-2.21;80.10
65832;BME280;52593;42.648;23.332;2023-01-30T15:25:39;94201.97;;;-2.47;80.18
65832;BME280;52593;42.648;23.332;2023-01-30T15:28:27;94200.78;;;-2.54;80.92
65832;BME280;52593;42.648;23.332;2023-01-30T15:31:19;94206.13;;;-2.56;80.84
65832;BME280;52593;42.648;23.332;2023-01-30T15:33:47;94204.38;;;-2.68;80.80
65832;BME280;52593;42.648;23.332;2023-01-30T15:39:22;94209.69;;;-2.57;80.54